Rome, Oregon
Current Conditions -  °F | °C
As of 11:53 PM on Saturday 25 Oct 2014 (Local Time) from KBNO Reporting Station
Broken Clouds Broken Clouds  
Wind Chill: 37°   Ceiling: 4700
Heat Index: 43°   Visibility: 10mi
Dew Point: 38°   Wind: 10mph
Humidity: 82%   Direction: 220°SW
Pressure: 29.94"   Gusts: NA
Location:  42.59°N, 117.86°W
Report Text: KBNO 260553Z AUTO 22009KT 10SM FEW038 BKN047 06/03 A2994 RMK AO2 SLP123 60000 T00610033 10150 20061 51015
Loading
Personal Weather Stations






























Interactive Weather Map
Tropical Storm Tracking
New forecast layout! Learn more

10-Day Weather Forecast

Advertisements
Track Severe Weather on mobile